METAR Data
IDs: Format: Raw Decoded Include TAF

Data at: 0838 UTC 19 Aug 2022

KERV 190835Z AUTO 31003KT 10SM -VCTSDZ BKN020 BKN038 OVC050 22/22 A3000 RMK AO2 LTG DSNT W P0001 T02230215
KERV 190815Z AUTO 33005KT 10SM -RA SCT019 BKN038 OVC050 23/22 A3000 RMK AO2 LTG DSNT W P0001 T02250215
KERV 190755Z AUTO 00000KT 10SM -RA BKN019 OVC026 23/21 A3000 RMK AO2 LTG DSNT W T02270211
KERV 190735Z AUTO 36003KT 10SM -DZ BKN021 BKN026 OVC060 23/21 A3000 RMK AO2 LTG DSNT W T02300210
KERV 190715Z AUTO 34003KT 10SM -DZ OVC021 23/21 A3001 RMK AO2 LTG DSNT SW T02270212
KERV 190655Z AUTO 35003KT 10SM VCTSRA BKN023 BKN036 BKN042 23/21 A3001 RMK AO2 LTG DSNT SW P0001 T02300210
KERV 190635Z AUTO 01003KT 10SM -RA SCT025 BKN060 OVC110 24/20 A3001 RMK AO2 LTG DSNT SW T02410202
KERV 190615Z AUTO 00000KT 10SM RA SCT060 BKN070 BKN090 25/19 A3002 RMK AO2 T02480191
KERV 190555Z AUTO 33003KT 10SM SCT070 25/19 A3001 RMK AO2 T02500190 10293 20248 403680221
KERV 190535Z AUTO 00000KT 10SM SCT070 BKN080 25/19 A3002 RMK AO2 T02490190
KERV 190515Z AUTO 09003KT 10SM SCT070 SCT080 25/19 A3001 RMK AO2 T02500190
KERV 190455Z AUTO 10005KT 10SM SCT070 SCT090 25/19 A3001 RMK AO2 LTG DSNT NW T02510188

KT82 190815Z AUTO 00000KT 7SM RA SCT022 BKN029 OVC047 23/21 A3000 RMK AO2 LTG DSNT SW P0001 T02250205
KT82 190755Z AUTO 36003KT 10SM BKN022 BKN030 OVC050 23/20 A3000 RMK AO2 LTG DSNT SW T02320200
KT82 190735Z AUTO 30005KT 10SM OVC022 23/20 A3001 RMK AO2 LTG DSNT SW T02300200
KT82 190715Z AUTO 32006KT 10SM BKN022 OVC050 23/20 A3002 RMK AO2 T02300201
KT82 190655Z AUTO 31004KT 10SM SCT020 BKN050 23/20 A3002 RMK AO2 T02310196
KT82 190635Z AUTO 00000KT 10SM CLR 23/19 A3001 RMK AO2 LTG DSNT SW T02320189
KT82 190615Z AUTO 26003KT 10SM SCT100 24/19 A3001 RMK AO2 T02350190
KT82 190555Z AUTO 00000KT 10SM SCT100 SCT120 23/20 A3001 RMK AO2 T02310195 10265 20231 403550220
KT82 190535Z AUTO 00000KT 10SM SCT060 SCT080 BKN120 24/19 A3002 RMK AO2 T02350187
KT82 190515Z AUTO 00000KT 10SM -RA SCT060 BKN085 BKN110 24/19 A3002 RMK AO2 T02360185
KT82 190455Z AUTO 00000KT 10SM SCT080 24/19 A3002 RMK AO2 LTG DSNT W T02370185

KHDO 190835Z AUTO 06004KT 10SM SCT014 26/22 A2995 RMK AO2 T02610217
KHDO 190751Z AUTO 08005KT 10SM OVC016 27/22 A2995 RMK AO2 SLP122 T02670217
KHDO 190719Z AUTO 09005KT 10SM BKN016 27/22 A2996 RMK AO2 LTG DSNT NW T02720222
KHDO 190651Z AUTO 11007KT 10SM CLR 27/22 A2995 RMK AO2 LTG DSNT NW SLP125 T02670217
KHDO 190551Z AUTO 11009KT 10SM CLR 28/21 A2996 RMK AO2 SLP126 T02780211 10344 20272 403830233 53003
KHDO 190451Z AUTO 08007KT 10SM CLR 28/20 A2994 RMK AO2 SLP122 T02780200

KCVB 190819Z AUTO 06003KT 7SM BKN014 27/21 A2996 RMK AO2 LTG DSNT NW
KCVB 190759Z AUTO 00000KT 7SM BKN014 27/21 A2996 RMK AO2 LTG DSNT NW
KCVB 190739Z AUTO 08003KT 7SM HZ OVC014 27/21 A2996 RMK AO2 LTG DSNT NW
KCVB 190719Z AUTO 09003KT 7SM OVC014 28/21 A2997 RMK AO2
KCVB 190659Z AUTO 00000KT 10SM BKN014 27/21 A2997 RMK AO2
KCVB 190639Z AUTO 09004KT 10SM BKN016 28/20 A2996 RMK AO2 LTG DSNT NW
KCVB 190619Z AUTO 09005KT 10SM CLR 28/20 A2997 RMK AO2
KCVB 190559Z AUTO 08003KT 10SM CLR 28/21 A2997 RMK AO2
KCVB 190542Z AUTO 08004KT 10SM CLR 28/21 A2997 RMK AO2
KCVB 190519Z AUTO 10006KT 10SM CLR 28/21 A2997 RMK AO2
KCVB 190502Z AUTO 09007KT 10SM CLR 29/21 A2997 RMK AO2
KCVB 190439Z AUTO 10006KT 10SM CLR 29/20 A2995 RMK AO2

KJCT 190751Z AUTO 20003KT 10SM CLR 23/22 A3001 RMK AO2 RAE21 SLP123 P0002 T02280222
KJCT 190651Z AUTO 23003KT 8SM -RA BKN110 23/23 A3003 RMK AO2 SLP128 P0003 T02330228
KJCT 190551Z AUTO 00000KT 5SM -RA BR BKN095 OVC110 23/23 A3005 RMK AO2 SLP135 P0014 60021 T02330228 10322 20233 403720228 50012
KJCT 190451Z AUTO 23004KT 6SM -RA BR FEW065 SCT080 BKN110 23/22 A3005 RMK AO2 LTG DSNT SE AND SW AND NW SLP137 P0003 T02330222